Time;durP1;ratioP1;P1;durP2;ratioP2;P2;SDS_P1;SDS_P2;PMS_P1;PMS_P2;Temp;Humidity;BMP_temperature;BMP_pressure;BME280_temperature;BME280_humidity;BME280_pressure;Samples;Min_cycle;Max_cycle;Signal;HPM_P1;HPM_P2
2021/07/12 00:01:28;;;;;;;28.50;5.38;;;;;;;;;;5117950;28;20035;-80
2021/07/12 00:03:53;;;;;;;7.40;5.13;;;;;;;;;;5118152;27;20067;-80
2021/07/12 00:06:21;;;;;;;15.43;4.47;;;;;;;;;;5116470;28;20093;-80
2021/07/12 00:08:47;;;;;;;10.13;4.57;;;;;;;;;;5117876;28;20036;-80
2021/07/12 00:11:12;;;;;;;12.63;4.47;;;;;;;;;;5117446;28;20034;-80
2021/07/12 00:13:38;;;;;;;26.45;6.05;;;;;;;;;;5117556;28;20481;-80
2021/07/12 00:16:04;;;;;;;13.95;4.38;;;;;;;;;;5117294;28;20035;-80
2021/07/12 00:18:30;;;;;;;12.88;4.55;;;;;;;;;;5117291;28;20505;-80
2021/07/12 00:20:56;;;;;;;22.52;5.07;;;;;;;;;;5116032;28;20106;-80
2021/07/12 00:23:21;;;;;;;9.35;4.35;;;;;;;;;;5116785;28;20502;-81
2021/07/12 00:25:47;;;;;;;12.07;4.78;;;;;;;;;;5116199;28;20042;-81
2021/07/12 00:28:12;;;;;;;14.45;4.68;;;;;;;;;;5116052;28;20090;-81
2021/07/12 00:30:38;;;;;;;14.07;4.70;;;;;;;;;;5116656;28;20036;-80
2021/07/12 00:33:03;;;;;;;12.80;4.97;;;;;;;;;;5115215;28;20034;-81
2021/07/12 00:35:29;;;;;;;11.55;4.72;;;;;;;;;;5116600;28;20042;-80
2021/07/12 00:37:55;;;;;;;9.70;4.70;;;;;;;;;;5116567;28;20027;-80
2021/07/12 00:40:23;;;;;;;5.47;4.60;;;;;;;;;;5114973;27;20039;-81
2021/07/12 00:42:50;;;;;;;7.03;4.80;;;;;;;;;;5116190;28;20035;-81
2021/07/12 00:45:19;;;;;;;9.55;5.10;;;;;;;;;;5116266;28;20024;-81
2021/07/12 00:47:46;;;;;;;11.70;5.68;;;;;;;;;;5116625;28;20034;-81
2021/07/12 00:50:13;;;;;;;11.95;5.40;;;;;;;;;;5116244;28;20390;-81
2021/07/12 00:52:39;;;;;;;8.52;4.90;;;;;;;;;;5114565;28;20106;-81
2021/07/12 00:55:15;;;;;;;12.02;5.20;;;;;;;;;;5115552;28;20035;-81
2021/07/12 00:57:42;;;;;;;7.50;4.97;;;;;;;;;;5115452;28;20035;-80
2021/07/12 01:00:09;;;;;;;8.25;5.18;;;;;;;;;;5115311;28;20055;-80
2021/07/12 01:02:35;;;;;;;10.65;4.85;;;;;;;;;;5114511;28;20027;-81
2021/07/12 01:05:07;;;;;;;9.05;4.40;;;;;;;;;;5114105;28;20529;-81
2021/07/12 01:07:34;;;;;;;11.82;4.60;;;;;;;;;;5115336;28;20023;-80
2021/07/12 01:09:59;;;;;;;10.38;6.13;;;;;;;;;;5115465;28;20040;-80
2021/07/12 01:12:56;;;;;;;16.23;6.20;;;;;;;;;;5113754;28;20081;-80
2021/07/12 01:15:24;;;;;;;23.43;6.13;;;;;;;;;;5082735;28;20050;-81
2021/07/12 01:18:23;;;;;;;12.70;6.43;;;;;;;;;;5113592;28;20104;-81
2021/07/12 01:21:43;;;;;;;25.75;6.50;;;;;;;;;;5115167;28;20065;-80
2021/07/12 01:24:37;;;;;;;42.00;6.53;;;;;;;;;;5071889;28;20051;-81
2021/07/12 01:27:38;;;;;;;29.17;7.30;;;;;;;;;;5096031;28;20028;-82
2021/07/12 01:30:18;;;;;;;18.35;6.78;;;;;;;;;;5077369;28;20046;-81
2021/07/12 01:32:59;;;;;;;19.75;7.10;;;;;;;;;;5107573;28;20080;-81
2021/07/12 01:35:53;;;;;;;11.05;6.05;;;;;;;;;;5114590;28;20043;-80
2021/07/12 01:39:01;;;;;;;8.55;6.15;;;;;;;;;;5113193;28;20035;-80
2021/07/12 01:42:00;;;;;;;10.60;6.60;;;;;;;;;;5112658;28;20031;-81
2021/07/12 01:44:42;;;;;;;9.82;6.57;;;;;;;;;;5113281;28;20119;-81
2021/07/12 01:47:13;;;;;;;26.00;7.55;;;;;;;;;;5113020;28;20028;-82
2021/07/12 01:49:49;;;;;;;12.57;7.03;;;;;;;;;;5114254;28;20066;-81
2021/07/12 01:52:40;;;;;;;26.55;6.65;;;;;;;;;;5114346;28;20031;-81
2021/07/12 01:55:11;;;;;;;9.60;6.18;;;;;;;;;;5097582;27;20066;-81
2021/07/12 01:57:51;;;;;;;25.95;7.32;;;;;;;;;;5092682;28;20139;-80
2021/07/12 02:00:19;;;;;;;20.02;7.25;;;;;;;;;;5098742;27;20031;-80
2021/07/12 02:02:52;;;;;;;22.70;6.10;;;;;;;;;;5114599;28;20046;-80
2021/07/12 02:05:30;;;;;;;49.65;6.82;;;;;;;;;;5116599;28;20051;-83
2021/07/12 02:08:00;;;;;;;18.58;5.72;;;;;;;;;;5119963;28;20394;-82
2021/07/12 02:10:30;;;;;;;15.77;6.43;;;;;;;;;;5117986;28;20126;-82
2021/07/12 02:12:59;;;;;;;14.05;6.88;;;;;;;;;;5118209;28;20065;-82
2021/07/12 02:15:26;;;;;;;21.25;6.80;;;;;;;;;;5100978;28;20077;-84
2021/07/12 02:17:58;;;;;;;15.90;7.10;;;;;;;;;;5119099;28;20035;-82
2021/07/12 02:20:37;;;;;;;9.80;6.50;;;;;;;;;;5117404;28;20088;-81
2021/07/12 02:23:05;;;;;;;15.90;7.68;;;;;;;;;;5117352;28;20028;-80
2021/07/12 02:25:31;;;;;;;12.52;6.25;;;;;;;;;;5117058;28;20439;-79
2021/07/12 02:28:03;;;;;;;8.68;6.00;;;;;;;;;;5116281;28;20023;-80
2021/07/12 02:30:29;;;;;;;11.20;6.53;;;;;;;;;;5117340;27;20051;-79
2021/07/12 02:32:56;;;;;;;15.00;7.90;;;;;;;;;;5114985;28;20440;-79
2021/07/12 02:35:21;;;;;;;8.15;6.40;;;;;;;;;;5101850;28;20115;-79
2021/07/12 02:37:48;;;;;;;8.07;7.25;;;;;;;;;;5095066;28;20090;-79
2021/07/12 02:40:16;;;;;;;12.02;7.63;;;;;;;;;;5095286;28;20490;-79
2021/07/12 02:42:48;;;;;;;12.63;7.78;;;;;;;;;;5094457;28;20096;-79
2021/07/12 02:45:17;;;;;;;10.80;7.53;;;;;;;;;;5092604;28;20082;-78
2021/07/12 02:47:46;;;;;;;7.90;7.10;;;;;;;;;;5094130;28;20111;-78
2021/07/12 02:50:12;;;;;;;8.85;6.57;;;;;;;;;;5093473;28;20059;-79
2021/07/12 02:52:46;;;;;;;7.50;6.18;;;;;;;;;;5093838;28;20032;-77
2021/07/12 02:55:12;;;;;;;9.63;6.95;;;;;;;;;;5091781;28;20388;-77
2021/07/12 02:57:38;;;;;;;20.65;5.68;;;;;;;;;;5093857;28;20038;-78
2021/07/12 03:00:07;;;;;;;6.85;5.28;;;;;;;;;;5093961;28;20036;-79
2021/07/12 03:02:36;;;;;;;8.32;5.15;;;;;;;;;;5093525;28;20076;-79
2021/07/12 03:05:06;;;;;;;7.03;5.57;;;;;;;;;;5092354;28;20387;-79
2021/07/12 03:07:42;;;;;;;8.40;5.63;;;;;;;;;;5096081;28;20813;-81
2021/07/12 03:10:13;;;;;;;6.03;5.20;;;;;;;;;;5096797;28;20491;-79
2021/07/12 03:12:47;;;;;;;10.85;4.55;;;;;;;;;;5079536;28;20111;-79
2021/07/12 03:15:15;;;;;;;5.35;4.50;;;;;;;;;;5097332;28;20028;-79
2021/07/12 03:17:49;;;;;;;5.85;3.90;;;;;;;;;;5109337;28;20666;-79
2021/07/12 03:20:16;;;;;;;5.60;3.33;;;;;;;;;;5115704;28;20491;-79
2021/07/12 03:22:48;;;;;;;6.88;3.30;;;;;;;;;;5119584;28;20027;-79
2021/07/12 03:25:21;;;;;;;4.97;3.67;;;;;;;;;;5120064;28;20393;-79
2021/07/12 03:27:47;;;;;;;7.65;4.80;;;;;;;;;;5119964;28;20375;-79
2021/07/12 03:30:13;;;;;;;7.30;5.03;;;;;;;;;;5121949;28;20042;-79
2021/07/12 03:32:43;;;;;;;8.57;6.18;;;;;;;;;;5119214;28;20390;-79
2021/07/12 03:35:10;;;;;;;13.30;5.22;;;;;;;;;;5119510;28;20035;-80
2021/07/12 03:37:37;;;;;;;7.45;3.30;;;;;;;;;;5117908;28;20024;-81
2021/07/12 03:40:07;;;;;;;4.05;3.00;;;;;;;;;;5117878;28;20038;-81
2021/07/12 03:42:34;;;;;;;2.70;2.45;;;;;;;;;;5118542;28;20571;-80
2021/07/12 03:45:02;;;;;;;2.70;2.50;;;;;;;;;;5116766;28;20041;-80
2021/07/12 03:47:29;;;;;;;4.85;2.30;;;;;;;;;;5118290;28;20099;-81
2021/07/12 03:50:11;;;;;;;4.47;2.53;;;;;;;;;;5100354;28;20073;-82
2021/07/12 03:52:43;;;;;;;3.75;2.40;;;;;;;;;;5117910;28;20401;-81
2021/07/12 03:55:10;;;;;;;3.58;2.70;;;;;;;;;;5115541;28;20455;-81
2021/07/12 03:57:35;;;;;;;3.97;2.90;;;;;;;;;;5097278;28;20024;-81
2021/07/12 04:00:01;;;;;;;3.20;2.90;;;;;;;;;;5095735;28;20035;-82
2021/07/12 04:02:26;;;;;;;3.83;2.63;;;;;;;;;;5095844;28;20110;-82
2021/07/12 04:04:52;;;;;;;2.85;2.63;;;;;;;;;;5096545;28;20054;-82
2021/07/12 04:07:17;;;;;;;3.42;2.80;;;;;;;;;;5095751;28;20024;-80
2021/07/12 04:09:42;;;;;;;3.50;2.90;;;;;;;;;;5095842;28;20061;-81
2021/07/12 04:12:08;;;;;;;3.47;3.00;;;;;;;;;;5137297;27;20110;-81
2021/07/12 04:14:33;;;;;;;5.95;3.20;;;;;;;;;;5137234;27;20035;-82
2021/07/12 04:16:59;;;;;;;6.80;3.25;;;;;;;;;;5148161;27;20406;-83
2021/07/12 04:19:24;;;;;;;10.75;3.80;;;;;;;;;;5120499;27;20031;-83
2021/07/12 04:21:50;;;;;;;9.57;4.75;;;;;;;;;;5089097;28;20066;-83
2021/07/12 04:24:15;;;;;;;5.93;4.22;;;;;;;;;;5105105;28;20059;-83
2021/07/12 04:26:40;;;;;;;11.50;6.13;;;;;;;;;;5120009;28;20656;-83
2021/07/12 04:29:06;;;;;;;18.77;6.88;;;;;;;;;;5124806;28;20036;-83
2021/07/12 04:31:33;;;;;;;7.25;6.05;;;;;;;;;;5100712;28;20044;-83
2021/07/12 04:33:58;;;;;;;8.30;7.05;;;;;;;;;;5115344;28;20035;-83
2021/07/12 04:36:24;;;;;;;12.80;7.57;;;;;;;;;;5115658;28;20057;-83
2021/07/12 04:38:50;;;;;;;10.32;7.47;;;;;;;;;;5115712;28;20457;-83
2021/07/12 04:41:16;;;;;;;13.45;8.50;;;;;;;;;;5117303;28;20475;-83
2021/07/12 04:43:42;;;;;;;33.65;9.73;;;;;;;;;;5115326;28;20035;-83
2021/07/12 04:46:07;;;;;;;65.80;9.93;;;;;;;;;;5116616;28;20035;-80
2021/07/12 04:48:34;;;;;;;14.68;9.82;;;;;;;;;;5114639;28;20508;-82
2021/07/12 04:50:59;;;;;;;29.23;8.93;;;;;;;;;;5115945;28;20028;-80
2021/07/12 04:53:25;;;;;;;34.55;8.15;;;;;;;;;;5097503;28;20047;-83
2021/07/12 04:55:50;;;;;;;39.13;9.15;;;;;;;;;;5096994;28;20036;-83
2021/07/12 04:58:15;;;;;;;28.95;8.13;;;;;;;;;;5102080;28;20028;-82
2021/07/12 05:00:41;;;;;;;17.98;7.78;;;;;;;;;;5096470;28;20074;-83
2021/07/12 05:03:07;;;;;;;8.68;7.22;;;;;;;;;;5097491;28;20241;-83
2021/07/12 05:05:33;;;;;;;27.15;6.95;;;;;;;;;;5098093;28;20052;-83
2021/07/12 05:07:59;;;;;;;7.47;6.47;;;;;;;;;;5096658;28;20096;-83
2021/07/12 05:10:24;;;;;;;10.90;6.32;;;;;;;;;;5097749;28;20032;-83
2021/07/12 05:12:50;;;;;;;28.95;7.68;;;;;;;;;;5096686;28;20066;-83
2021/07/12 05:15:15;;;;;;;48.83;8.30;;;;;;;;;;5098321;28;20032;-83
2021/07/12 05:17:41;;;;;;;13.13;8.65;;;;;;;;;;5097852;28;20031;-83
2021/07/12 05:20:08;;;;;;;18.05;9.05;;;;;;;;;;5096227;28;20054;-82
2021/07/12 05:22:34;;;;;;;28.45;10.18;;;;;;;;;;5097833;28;20036;-83
2021/07/12 05:25:00;;;;;;;56.78;11.23;;;;;;;;;;5097470;28;20113;-83
2021/07/12 05:27:25;;;;;;;41.58;10.48;;;;;;;;;;5103254;28;20039;-83
2021/07/12 05:29:50;;;;;;;31.02;11.95;;;;;;;;;;5117191;28;20069;-82
2021/07/12 05:32:16;;;;;;;20.40;9.93;;;;;;;;;;5097798;28;20042;-83
2021/07/12 05:34:41;;;;;;;24.02;10.68;;;;;;;;;;5121678;28;20101;-84
2021/07/12 05:37:07;;;;;;;39.75;10.38;;;;;;;;;;5105517;28;20040;-83
2021/07/12 05:39:32;;;;;;;36.42;10.40;;;;;;;;;;5122453;28;20039;-83
2021/07/12 05:41:57;;;;;;;20.10;11.57;;;;;;;;;;5119985;28;20039;-83
2021/07/12 05:44:23;;;;;;;17.25;9.23;;;;;;;;;;5119878;28;20027;-83
2021/07/12 05:46:48;;;;;;;31.52;10.98;;;;;;;;;;5121534;28;20041;-83
2021/07/12 05:49:14;;;;;;;33.67;9.57;;;;;;;;;;5121253;28;20067;-83
2021/07/12 05:51:40;;;;;;;14.98;8.20;;;;;;;;;;5119470;28;20032;-83
2021/07/12 05:54:08;;;;;;;12.18;7.65;;;;;;;;;;5118166;27;20031;-83
2021/07/12 05:56:33;;;;;;;14.00;7.07;;;;;;;;;;5097302;28;20039;-83
2021/07/12 05:58:59;;;;;;;16.70;7.53;;;;;;;;;;5099970;28;20106;-83
2021/07/12 06:01:24;;;;;;;30.05;7.07;;;;;;;;;;5098407;28;20032;-83
2021/07/12 06:03:50;;;;;;;10.15;7.38;;;;;;;;;;5099405;28;20119;-83
2021/07/12 06:06:15;;;;;;;9.75;6.47;;;;;;;;;;5098012;28;20035;-83
2021/07/12 06:08:41;;;;;;;10.18;7.63;;;;;;;;;;5097718;28;20486;-83
2021/07/12 06:11:08;;;;;;;8.30;6.50;;;;;;;;;;5099081;28;20127;-83
2021/07/12 06:13:33;;;;;;;8.77;6.18;;;;;;;;;;5098502;28;20428;-83
2021/07/12 06:15:59;;;;;;;8.25;5.88;;;;;;;;;;5097411;28;20048;-83
2021/07/12 06:18:26;;;;;;;9.23;5.05;;;;;;;;;;5097459;28;20036;-84
2021/07/12 06:20:51;;;;;;;6.95;4.93;;;;;;;;;;5096188;28;20101;-83
2021/07/12 06:23:17;;;;;;;5.65;4.88;;;;;;;;;;5098186;28;20039;-83
2021/07/12 06:25:42;;;;;;;8.95;4.85;;;;;;;;;;5112844;28;20111;-83
2021/07/12 06:28:08;;;;;;;4.57;4.03;;;;;;;;;;5117801;28;20034;-83
2021/07/12 06:30:34;;;;;;;7.53;5.63;;;;;;;;;;5116580;28;20421;-83
2021/07/12 06:32:59;;;;;;;8.00;5.00;;;;;;;;;;5098239;28;20114;-83
2021/07/12 06:35:27;;;;;;;9.02;4.30;;;;;;;;;;5118034;28;20039;-83
2021/07/12 06:37:53;;;;;;;6.30;4.80;;;;;;;;;;5116842;28;20031;-82
2021/07/12 06:40:18;;;;;;;5.07;4.10;;;;;;;;;;5117205;28;20050;-79
2021/07/12 06:42:44;;;;;;;4.75;4.13;;;;;;;;;;5114998;28;20046;-80
2021/07/12 06:45:10;;;;;;;6.03;5.35;;;;;;;;;;5096623;28;20061;-80
2021/07/12 06:47:36;;;;;;;6.53;4.28;;;;;;;;;;5113414;28;20023;-79
2021/07/12 06:50:05;;;;;;;4.07;3.65;;;;;;;;;;5114696;28;20455;-79
2021/07/12 06:52:30;;;;;;;5.13;3.67;;;;;;;;;;5116131;28;20050;-80
2021/07/12 06:54:56;;;;;;;4.10;3.53;;;;;;;;;;5113333;28;20401;-79
2021/07/12 06:57:23;;;;;;;3.75;3.33;;;;;;;;;;5113501;28;20562;-80
2021/07/12 06:59:50;;;;;;;3.55;3.03;;;;;;;;;;5116694;28;20058;-82
2021/07/12 07:02:16;;;;;;;3.00;2.60;;;;;;;;;;5117713;27;20035;-81
2021/07/12 07:04:44;;;;;;;3.95;2.85;;;;;;;;;;5117772;28;20122;-81
2021/07/12 07:07:11;;;;;;;3.35;2.70;;;;;;;;;;5117090;28;20119;-80
2021/07/12 07:09:37;;;;;;;3.17;2.88;;;;;;;;;;5118414;28;20059;-83
2021/07/12 07:12:02;;;;;;;3.30;3.00;;;;;;;;;;5118026;28;20370;-82
2021/07/12 07:14:37;;;;;;;;;;;;;;;;;;5117642;28;20382;-78
2021/07/12 07:17:03;;;;;;;;;;;;;;;;;;5112306;27;19916;-80
2021/07/12 07:19:28;;;;;;;2.97;2.50;;;;;;;;;;5098510;28;20340;-82
2021/07/12 07:21:54;;;;;;;2.78;2.50;;;;;;;;;;5098761;28;20032;-81
2021/07/12 07:24:20;;;;;;;2.97;2.60;;;;;;;;;;5098372;28;20040;-84
2021/07/12 07:26:46;;;;;;;3.08;2.70;;;;;;;;;;5097061;28;20016;-80
2021/07/12 07:29:12;;;;;;;3.08;2.45;;;;;;;;;;5105507;28;20039;-79
2021/07/12 07:31:38;;;;;;;3.42;2.63;;;;;;;;;;5118009;28;20044;-82
2021/07/12 07:34:03;;;;;;;4.43;2.70;;;;;;;;;;5118581;28;20039;-84
2021/07/12 07:36:29;;;;;;;5.68;2.90;;;;;;;;;;5117407;28;20043;-81
2021/07/12 07:38:54;;;;;;;3.88;3.22;;;;;;;;;;5117520;28;20035;-82
2021/07/12 07:41:22;;;;;;;4.55;2.80;;;;;;;;;;5116866;28;20038;-83
2021/07/12 07:43:47;;;;;;;4.03;2.78;;;;;;;;;;5099274;28;20031;-82
2021/07/12 07:46:13;;;;;;;3.13;2.78;;;;;;;;;;5117627;27;20547;-83
2021/07/12 07:48:38;;;;;;;5.03;2.72;;;;;;;;;;5117805;28;20027;-81
2021/07/12 07:51:03;;;;;;;9.00;2.63;;;;;;;;;;5118151;28;20402;-82
2021/07/12 07:53:29;;;;;;;3.25;2.25;;;;;;;;;;5117047;28;20557;-81
2021/07/12 07:55:54;;;;;;;2.78;2.58;;;;;;;;;;5116783;28;20399;-80
2021/07/12 07:58:19;;;;;;;3.30;3.00;;;;;;;;;;5116588;27;20114;-80
2021/07/12 08:00:45;;;;;;;3.47;2.88;;;;;;;;;;5116481;28;20038;-81
2021/07/12 08:03:10;;;;;;;4.95;3.28;;;;;;;;;;5115482;28;20039;-81
2021/07/12 08:05:36;;;;;;;4.43;3.67;;;;;;;;;;5116362;28;20116;-82
2021/07/12 08:08:02;;;;;;;6.50;3.72;;;;;;;;;;5097737;28;20031;-81
2021/07/12 08:10:27;;;;;;;4.97;2.70;;;;;;;;;;5115006;28;20444;-81
2021/07/12 08:12:53;;;;;;;3.80;3.30;;;;;;;;;;5114924;28;20074;-82
2021/07/12 08:15:19;;;;;;;3.38;2.88;;;;;;;;;;5097761;28;20035;-82
2021/07/12 08:17:47;;;;;;;2.97;2.67;;;;;;;;;;5116406;28;20457;-81
2021/07/12 08:20:14;;;;;;;2.42;2.22;;;;;;;;;;5116187;28;20058;-83
2021/07/12 08:22:40;;;;;;;3.38;2.80;;;;;;;;;;5115778;28;20035;-83
2021/07/12 08:25:07;;;;;;;4.22;2.90;;;;;;;;;;5111507;28;20035;-82
2021/07/12 08:27:34;;;;;;;5.43;4.20;;;;;;;;;;5094253;28;20024;-82
2021/07/12 08:29:59;;;;;;;2.50;2.30;;;;;;;;;;5095003;28;20035;-85
2021/07/12 08:32:25;;;;;;;8.07;2.50;;;;;;;;;;5096142;28;20372;-84
2021/07/12 08:34:51;;;;;;;2.63;2.28;;;;;;;;;;5094709;28;20066;-86
2021/07/12 08:37:16;;;;;;;2.70;2.15;;;;;;;;;;5078804;28;20100;-84
2021/07/12 08:39:42;;;;;;;3.45;2.40;;;;;;;;;;5095152;28;20115;-82
2021/07/12 08:42:10;;;;;;;2.25;2.05;;;;;;;;;;5096796;28;20118;-81
2021/07/12 08:44:35;;;;;;;2.40;2.20;;;;;;;;;;5114451;28;20031;-80
2021/07/12 08:47:01;;;;;;;2.53;2.13;;;;;;;;;;5116449;28;20031;-82
2021/07/12 08:49:27;;;;;;;4.35;2.15;;;;;;;;;;5117861;28;20453;-83
2021/07/12 08:51:53;;;;;;;2.10;1.90;;;;;;;;;;5116115;28;20031;-81
2021/07/12 08:54:18;;;;;;;2.63;1.90;;;;;;;;;;5116257;28;20039;-82
2021/07/12 08:56:44;;;;;;;3.40;2.10;;;;;;;;;;5117219;27;20091;-82
2021/07/12 08:59:28;;;;;;;2.00;1.83;;;;;;;;;;5118007;28;20043;-83
2021/07/12 09:02:11;;;;;;;2.00;1.80;;;;;;;;;;5115745;28;20451;-82
2021/07/12 09:04:56;;;;;;;1.83;1.50;;;;;;;;;;5119345;28;20047;-82
2021/07/12 09:07:27;;;;;;;2.20;1.80;;;;;;;;;;5115403;28;20040;-87
2021/07/12 09:10:05;;;;;;;1.52;1.42;;;;;;;;;;5099101;28;20130;-81
2021/07/12 09:12:38;;;;;;;2.20;1.90;;;;;;;;;;5117984;28;20397;-79
2021/07/12 09:15:08;;;;;;;2.28;1.80;;;;;;;;;;5117559;28;20035;-80
2021/07/12 09:17:36;;;;;;;1.70;1.60;;;;;;;;;;5117091;28;20039;-79
2021/07/12 09:20:05;;;;;;;3.70;1.67;;;;;;;;;;5118343;28;20063;-82
2021/07/12 09:22:32;;;;;;;2.60;1.92;;;;;;;;;;5118818;28;20039;-83
2021/07/12 09:25:00;;;;;;;2.03;1.60;;;;;;;;;;5117747;28;20138;-83
2021/07/12 09:27:27;;;;;;;2.03;1.70;;;;;;;;;;5106220;28;20034;-84
2021/07/12 09:29:58;;;;;;;1.60;1.50;;;;;;;;;;5096699;28;20497;-81
2021/07/12 09:32:26;;;;;;;3.90;1.85;;;;;;;;;;5098132;28;20047;-80
2021/07/12 09:34:57;;;;;;;6.53;2.08;;;;;;;;;;5098166;28;20036;-83
2021/07/12 09:37:24;;;;;;;3.55;2.00;;;;;;;;;;5096106;28;20040;-81
2021/07/12 09:39:51;;;;;;;2.25;2.03;;;;;;;;;;5095767;28;20562;-80
2021/07/12 09:42:23;;;;;;;3.90;1.90;;;;;;;;;;5097105;28;20040;-80
2021/07/12 09:44:58;;;;;;;2.30;1.67;;;;;;;;;;5096865;28;20085;-83
2021/07/12 09:47:26;;;;;;;2.75;2.25;;;;;;;;;;5096703;28;20028;-84
2021/07/12 09:50:08;;;;;;;2.00;1.90;;;;;;;;;;5095763;28;20046;-82
2021/07/12 09:52:41;;;;;;;2.30;2.10;;;;;;;;;;5098495;28;20075;-85
2021/07/12 09:55:07;;;;;;;3.10;1.75;;;;;;;;;;5100595;28;20038;-81
2021/07/12 09:57:33;;;;;;;2.28;2.08;;;;;;;;;;5116034;28;20040;-81
2021/07/12 10:00:08;;;;;;;2.30;2.10;;;;;;;;;;5116027;28;20442;-84
2021/07/12 10:02:42;;;;;;;2.70;2.08;;;;;;;;;;5118191;28;20031;-82
2021/07/12 10:05:10;;;;;;;4.53;2.00;;;;;;;;;;5115482;28;20450;-83
2021/07/12 10:07:35;;;;;;;2.97;1.92;;;;;;;;;;5117436;28;20549;-81
2021/07/12 10:10:16;;;;;;;2.20;2.00;;;;;;;;;;5116285;28;20445;-82
2021/07/12 10:12:43;;;;;;;4.75;2.00;;;;;;;;;;5117313;27;20399;-82
2021/07/12 10:15:09;;;;;;;2.47;1.88;;;;;;;;;;5115376;28;20036;-83
2021/07/12 10:17:39;;;;;;;4.32;2.03;;;;;;;;;;5115720;28;20035;-83
2021/07/12 10:20:04;;;;;;;2.72;2.10;;;;;;;;;;5094285;28;20043;-83
2021/07/12 10:22:35;;;;;;;33.90;6.50;;;;;;;;;;5095872;28;20483;-82
2021/07/12 10:25:10;;;;;;;4.32;2.42;;;;;;;;;;5110836;28;20031;-82
2021/07/12 10:27:53;;;;;;;3.58;2.33;;;;;;;;;;5116331;28;20035;-83
2021/07/12 10:30:23;;;;;;;4.38;1.85;;;;;;;;;;5115889;28;20036;-80
2021/07/12 10:32:52;;;;;;;5.05;1.98;;;;;;;;;;5112853;28;20042;-82
2021/07/12 10:35:52;;;;;;;2.42;1.80;;;;;;;;;;5113618;28;20118;-83
2021/07/12 10:38:25;;;;;;;2.17;1.85;;;;;;;;;;5113669;28;20036;-81
2021/07/12 10:40:56;;;;;;;6.10;1.80;;;;;;;;;;5095854;28;20065;-84
2021/07/12 10:43:46;;;;;;;1.90;1.80;;;;;;;;;;5114414;28;20043;-80
2021/07/12 10:46:24;;;;;;;3.42;1.98;;;;;;;;;;5113489;28;20482;-78
2021/07/12 10:48:50;;;;;;;1.95;1.83;;;;;;;;;;5112678;28;20494;-81
2021/07/12 10:51:24;;;;;;;2.42;1.92;;;;;;;;;;5115098;28;20036;-81
2021/07/12 10:54:07;;;;;;;4.60;1.70;;;;;;;;;;5114713;28;20028;-83
2021/07/12 10:57:02;;;;;;;1.83;1.70;;;;;;;;;;5114507;28;20612;-82
2021/07/12 10:59:31;;;;;;;2.38;1.90;;;;;;;;;;5115057;28;20038;-83
2021/07/12 11:01:59;;;;;;;2.08;1.88;;;;;;;;;;5116625;28;20042;-83
2021/07/12 11:04:32;;;;;;;1.60;1.50;;;;;;;;;;5115782;28;20058;-83
2021/07/12 11:06:59;;;;;;;2.08;1.60;;;;;;;;;;5116103;28;20027;-83
2021/07/12 11:10:12;;;;;;;2.78;1.80;;;;;;;;;;5115809;28;20371;-82
2021/07/12 11:12:50;;;;;;;1.90;1.50;;;;;;;;;;5099146;28;20069;-85
2021/07/12 11:15:29;;;;;;;2.00;1.90;;;;;;;;;;5096394;28;20054;-83
2021/07/12 11:17:56;;;;;;;4.72;2.30;;;;;;;;;;5114200;28;20045;-84
2021/07/12 11:20:57;;;;;;;3.85;2.20;;;;;;;;;;5115468;28;20071;-82
2021/07/12 11:23:44;;;;;;;2.20;2.00;;;;;;;;;;5114350;28;20032;-84
2021/07/12 11:26:19;;;;;;;2.55;2.10;;;;;;;;;;5113478;28;20047;-83
2021/07/12 11:28:47;;;;;;;3.20;2.42;;;;;;;;;;5113432;28;20027;-85
2021/07/12 11:31:39;;;;;;;3.50;2.40;;;;;;;;;;5113369;28;20027;-87
2021/07/12 11:34:06;;;;;;;2.42;2.20;;;;;;;;;;5101156;28;20024;-86
2021/07/12 11:36:32;;;;;;;1.95;1.85;;;;;;;;;;5093624;28;20090;-85
2021/07/12 11:38:57;;;;;;;2.63;1.95;;;;;;;;;;5091457;28;20058;-86
2021/07/12 11:41:23;;;;;;;6.25;2.20;;;;;;;;;;5091459;28;20036;-85
2021/07/12 11:44:10;;;;;;;3.20;2.00;;;;;;;;;;5092777;28;20030;-85
2021/07/12 11:46:36;;;;;;;10.07;2.20;;;;;;;;;;5114798;28;20031;-85
2021/07/12 11:49:10;;;;;;;2.78;2.10;;;;;;;;;;5114920;28;20551;-85
2021/07/12 11:51:36;;;;;;;2.92;2.38;;;;;;;;;;5115392;28;20417;-83
2021/07/12 11:54:03;;;;;;;2.35;2.15;;;;;;;;;;5115251;28;20447;-86
2021/07/12 11:56:28;;;;;;;4.95;2.50;;;;;;;;;;5114563;28;20054;-86
2021/07/12 11:58:56;;;;;;;3.80;2.50;;;;;;;;;;5114975;28;20044;-86
2021/07/12 12:01:21;;;;;;;2.92;2.60;;;;;;;;;;5097828;28;20173;-85
2021/07/12 12:03:46;;;;;;;3.95;2.58;;;;;;;;;;5114717;28;20069;-86
2021/07/12 12:06:22;;;;;;;2.38;2.17;;;;;;;;;;5114944;28;20032;-86
2021/07/12 12:09:04;;;;;;;2.42;2.22;;;;;;;;;;5114935;28;20626;-86
2021/07/12 12:11:31;;;;;;;2.40;2.20;;;;;;;;;;5114594;28;20541;-86
2021/07/12 12:13:57;;;;;;;7.82;2.60;;;;;;;;;;5116024;28;20478;-86
2021/07/12 12:16:29;;;;;;;3.08;2.53;;;;;;;;;;5115786;28;20031;-86
2021/07/12 12:18:56;;;;;;;2.60;2.35;;;;;;;;;;5114516;28;20038;-86
2021/07/12 12:21:25;;;;;;;2.85;2.40;;;;;;;;;;5114528;28;20114;-86
2021/07/12 12:23:53;;;;;;;3.35;2.60;;;;;;;;;;5097652;28;20032;-86
2021/07/12 12:26:23;;;;;;;5.28;2.88;;;;;;;;;;5131932;27;20035;-86
2021/07/12 12:28:56;;;;;;;8.43;3.25;;;;;;;;;;5134918;27;20042;-86
2021/07/12 12:31:30;;;;;;;3.65;2.60;;;;;;;;;;5135313;27;20102;-86
2021/07/12 12:34:08;;;;;;;2.90;2.67;;;;;;;;;;5138245;27;20034;-85
2021/07/12 12:36:35;;;;;;;2.90;2.70;;;;;;;;;;5140608;27;20079;-86
2021/07/12 12:39:03;;;;;;;3.00;2.65;;;;;;;;;;5136887;27;20405;-85
2021/07/12 12:41:31;;;;;;;5.63;2.13;;;;;;;;;;5117917;27;20039;-86
2021/07/12 12:44:07;;;;;;;4.30;2.78;;;;;;;;;;5135885;27;20405;-86
2021/07/12 12:46:34;;;;;;;3.05;2.50;;;;;;;;;;5134678;27;20031;-86
2021/07/12 12:49:17;;;;;;;3.60;2.40;;;;;;;;;;5135689;27;20489;-86
2021/07/12 12:51:55;;;;;;;2.60;2.40;;;;;;;;;;5134336;27;20039;-86
2021/07/12 12:54:22;;;;;;;2.47;2.28;;;;;;;;;;5117066;27;20034;-86
2021/07/12 12:56:53;;;;;;;2.97;2.30;;;;;;;;;;5123725;27;20459;-86
2021/07/12 12:59:33;;;;;;;2.70;2.42;;;;;;;;;;5115214;28;20076;-86
2021/07/12 13:02:10;;;;;;;2.70;2.20;;;;;;;;;;5115036;28;20379;-86
2021/07/12 13:04:50;;;;;;;2.50;2.30;;;;;;;;;;5113667;28;20051;-86
2021/07/12 13:07:19;;;;;;;2.55;2.35;;;;;;;;;;5114889;28;20034;-86
2021/07/12 13:09:47;;;;;;;4.80;2.42;;;;;;;;;;5096645;28;20381;-86
2021/07/12 13:12:20;;;;;;;7.55;2.38;;;;;;;;;;5113348;28;20036;-86
2021/07/12 13:14:55;;;;;;;2.58;2.38;;;;;;;;;;5096560;28;20031;-86
2021/07/12 13:17:28;;;;;;;3.05;2.53;;;;;;;;;;5120013;27;20035;-86
2021/07/12 13:19:58;;;;;;;3.00;2.15;;;;;;;;;;5133899;27;20405;-85
2021/07/12 13:22:29;;;;;;;4.20;2.40;;;;;;;;;;5117106;27;20066;-87
2021/07/12 13:24:59;;;;;;;2.88;2.33;;;;;;;;;;5134998;27;20033;-86
2021/07/12 13:27:28;;;;;;;3.60;2.65;;;;;;;;;;5134959;27;20027;-86
2021/07/12 13:29:55;;;;;;;2.42;2.22;;;;;;;;;;5116748;27;20142;-86
2021/07/12 13:32:21;;;;;;;2.05;1.85;;;;;;;;;;5133579;27;20036;-86
2021/07/12 13:34:54;;;;;;;2.55;1.98;;;;;;;;;;5099231;27;20103;-87
2021/07/12 13:37:20;;;;;;;2.80;2.40;;;;;;;;;;5095429;28;20035;-86
2021/07/12 13:39:45;;;;;;;3.10;2.05;;;;;;;;;;5092569;28;20107;-87
2021/07/12 13:42:13;;;;;;;2.22;2.03;;;;;;;;;;5096403;28;20035;-88
2021/07/12 13:44:45;;;;;;;3.35;2.45;;;;;;;;;;5114415;28;20038;-87
2021/07/12 13:47:11;;;;;;;8.80;2.75;;;;;;;;;;5096251;28;20394;-88
2021/07/12 13:49:39;;;;;;;4.68;2.10;;;;;;;;;;5096037;28;20501;-87
2021/07/12 13:52:05;;;;;;;7.97;2.67;;;;;;;;;;5113044;28;20410;-87
2021/07/12 13:54:31;;;;;;;4.80;1.65;;;;;;;;;;5112876;28;20031;-88
2021/07/12 13:56:56;;;;;;;2.45;1.58;;;;;;;;;;5112661;28;20042;-88
2021/07/12 13:59:22;;;;;;;1.73;1.63;;;;;;;;;;5112884;28;20043;-85
2021/07/12 14:01:48;;;;;;;1.63;1.52;;;;;;;;;;5114127;28;20085;-87
2021/07/12 14:04:14;;;;;;;1.55;1.45;;;;;;;;;;5112348;27;20044;-87
2021/07/12 14:06:39;;;;;;;1.52;1.40;;;;;;;;;;5113417;28;20035;-85
2021/07/12 14:09:05;;;;;;;1.60;1.50;;;;;;;;;;5115905;28;20126;-82
2021/07/12 14:11:30;;;;;;;1.60;1.50;;;;;;;;;;5116309;27;20402;-86
2021/07/12 14:13:56;;;;;;;1.98;1.50;;;;;;;;;;5115271;28;20031;-86
2021/07/12 14:16:24;;;;;;;2.33;1.67;;;;;;;;;;5112448;28;20036;-87
2021/07/12 14:18:53;;;;;;;2.60;1.80;;;;;;;;;;5096017;28;20180;-86
2021/07/12 14:21:22;;;;;;;1.77;1.40;;;;;;;;;;5095382;28;20047;-85
2021/07/12 14:23:48;;;;;;;1.52;1.40;;;;;;;;;;5115265;28;20035;-85
2021/07/12 14:26:19;;;;;;;2.17;1.60;;;;;;;;;;5099323;28;20046;-85
2021/07/12 14:28:46;;;;;;;1.73;1.40;;;;;;;;;;5094174;28;20471;-85
2021/07/12 14:31:15;;;;;;;1.67;1.58;;;;;;;;;;5094945;28;20040;-85
2021/07/12 14:33:41;;;;;;;1.80;1.70;;;;;;;;;;5093601;28;20043;-84
2021/07/12 14:36:07;;;;;;;2.58;1.80;;;;;;;;;;5078768;28;20036;-85
2021/07/12 14:38:32;;;;;;;4.43;1.50;;;;;;;;;;5093507;28;20046;-86
2021/07/12 14:40:59;;;;;;;3.25;1.85;;;;;;;;;;5092933;28;20059;-86
2021/07/12 14:43:24;;;;;;;2.13;1.92;;;;;;;;;;5093164;28;20549;-86
2021/07/12 14:45:51;;;;;;;2.00;1.70;;;;;;;;;;5075026;28;20060;-86
2021/07/12 14:48:16;;;;;;;1.77;1.30;;;;;;;;;;5075063;28;20440;-86
2021/07/12 14:50:45;;;;;;;1.35;1.25;;;;;;;;;;5091987;28;20044;-85
2021/07/12 14:53:10;;;;;;;2.05;1.50;;;;;;;;;;5091821;28;20061;-85
2021/07/12 14:55:36;;;;;;;3.33;1.33;;;;;;;;;;5086530;28;20095;-85